Time;durP1;ratioP1;P1;durP2;ratioP2;P2;SDS_P1;SDS_P2;PMS_P1;PMS_P2;Temp;Humidity;BMP_temperature;BMP_pressure;BME280_temperature;BME280_humidity;BME280_pressure;Samples;Min_cycle;Max_cycle;Signal;HPM_P1;HPM_P2
2023/10/24 00:00:39;;;;;;;6.12;4.12;;;;;;;21.10;42.98;99929.23;1708384;82;21296;-82
2023/10/24 00:03:46;;;;;;;7.50;4.22;;;;;;;21.10;43.01;99932.02;1737023;82;21856;-81
2023/10/24 00:06:51;;;;;;;10.50;5.08;;;;;;;20.98;43.14;99926.24;1736419;82;21390;-80
2023/10/24 00:09:58;;;;;;;8.73;4.42;;;;;;;21.15;42.84;99928.47;1737311;82;21300;-83
2023/10/24 00:13:03;;;;;;;6.15;4.03;;;;;;;20.67;43.84;99931.31;1737397;82;21300;-81
2023/10/24 00:16:03;;;;;;;9.55;4.58;;;;;;;20.72;43.70;99934.73;1729902;82;21926;-82
2023/10/24 00:18:55;;;;;;;7.22;4.83;;;;;;;20.23;44.59;99938.52;1720499;83;21305;-81
2023/10/24 00:21:42;;;;;;;12.15;5.37;;;;;;;20.57;44.02;99939.48;1720758;83;21304;-83
2023/10/24 00:24:34;;;;;;;14.25;7.35;;;;;;;20.34;44.38;99937.64;1797084;80;21865;-82
2023/10/24 00:27:40;;;;;;;9.43;6.42;;;;;;;20.58;43.87;99941.16;1796256;80;22441;-81
2023/10/24 00:30:46;;;;;;;11.08;6.08;;;;;;;20.62;43.79;99937.63;1719080;82;21894;-83
2023/10/24 00:33:51;;;;;;;12.37;5.97;;;;;;;20.92;43.20;99928.95;1737119;82;21355;-83
2023/10/24 00:36:57;;;;;;;15.08;5.47;;;;;;;21.14;42.68;99934.58;1735779;82;21328;-83
2023/10/24 00:40:04;;;;;;;13.88;6.45;;;;;;;21.19;42.67;99934.66;1735221;82;21312;-82
2023/10/24 00:43:11;;;;;;;9.00;5.47;;;;;;;20.86;43.27;99931.36;1788521;80;21920;-84
2023/10/24 00:46:19;;;;;;;10.68;5.85;;;;;;;21.12;42.81;99938.15;1727931;82;21333;-82
2023/10/24 00:49:25;;;;;;;14.98;7.50;;;;;;;20.95;43.19;99933.72;1783461;80;21308;-83
2023/10/24 00:52:30;;;;;;;10.58;6.28;;;;;;;20.78;43.38;99937.88;1783483;80;21825;-84
2023/10/24 00:55:39;;;;;;;10.80;6.28;;;;;;;20.93;43.25;99938.13;1726794;83;21872;-81
2023/10/24 00:58:44;;;;;;;10.93;6.28;;;;;;;20.92;42.99;99937.84;1732914;82;21313;-83
2023/10/24 01:01:44;;;;;;;15.72;6.72;;;;;;;20.88;43.16;99945.83;1758030;81;21320;-83
2023/10/24 01:04:39;;;;;;;12.93;6.85;;;;;;;20.80;43.37;99938.48;1758511;81;21773;-84
2023/10/24 01:07:25;;;;;;;10.78;6.20;;;;;;;20.79;43.40;99936.78;1758627;81;21299;-81
2023/10/24 01:10:24;;;;;;;13.78;6.80;;;;;;;20.16;44.81;99943.69;1758854;81;21269;-82
2023/10/24 01:13:31;;;;;;;10.50;5.92;;;;;;;20.30;43.77;99958.67;1758913;81;21878;-83
2023/10/24 01:16:38;;;;;;;11.68;6.47;;;;;;;19.75;45.35;99957.28;1734597;81;21356;-82
2023/10/24 01:19:45;;;;;;;16.25;6.62;;;;;;;20.68;43.55;99967.18;1763356;81;21268;-83
2023/10/24 01:22:53;;;;;;;13.72;5.85;;;;;;;19.42;45.65;99963.45;1760184;81;21836;-82
2023/10/24 01:25:59;;;;;;;11.88;5.78;;;;;;;19.89;45.18;99966.17;1755984;81;21299;-82
2023/10/24 01:29:04;;;;;;;10.68;6.03;;;;;;;20.38;44.09;99962.44;1761082;81;21841;-83
2023/10/24 01:32:09;;;;;;;17.15;6.87;;;;;;;19.41;45.78;99960.39;1783341;80;21332;-82
2023/10/24 01:35:17;;;;;;;9.45;5.80;;;;;;;20.35;44.31;99955.44;1707069;84;21348;-84
2023/10/24 01:38:23;;;;;;;11.08;6.15;;;;;;;20.30;44.37;99953.11;1720914;83;21285;-84
2023/10/24 01:41:28;;;;;;;10.98;5.53;;;;;;;20.44;43.98;99950.33;1724016;83;21332;-81
2023/10/24 01:44:34;;;;;;;11.18;6.87;;;;;;;20.24;44.35;99956.89;1723846;83;21332;-85
2023/10/24 01:47:39;;;;;;;11.18;7.05;;;;;;;19.24;45.94;99951.11;1723731;83;21319;-83
2023/10/24 01:50:44;;;;;;;13.40;6.97;;;;;;;20.19;44.23;99954.86;1724712;83;21316;-84
2023/10/24 01:53:50;;;;;;;16.27;6.62;;;;;;;19.73;44.92;99959.47;1723625;83;21329;-81
2023/10/24 01:56:55;;;;;;;12.35;6.45;;;;;;;19.99;44.56;99952.50;1724768;83;21958;-84
2023/10/24 02:00:03;;;;;;;15.53;6.67;;;;;;;19.68;45.08;99951.04;1724780;83;21272;-81
2023/10/24 02:03:08;;;;;;;9.65;6.33;;;;;;;19.71;45.17;99962.17;1709734;83;21319;-83
2023/10/24 02:06:14;;;;;;;12.40;7.05;;;;;;;19.80;44.99;99957.94;1709985;83;21295;-83
2023/10/24 02:09:20;;;;;;;14.63;6.72;;;;;;;19.66;45.23;99958.75;1709897;84;21276;-83
2023/10/24 02:12:26;;;;;;;9.25;5.78;;;;;;;19.61;45.30;99962.25;1708679;83;21351;-81
2023/10/24 02:15:32;;;;;;;12.40;5.87;;;;;;;19.53;45.45;99970.10;1698997;82;21288;-82
2023/10/24 02:18:38;;;;;;;11.15;6.08;;;;;;;19.62;45.40;99973.67;1726738;83;21312;-81
2023/10/24 02:21:43;;;;;;;10.40;6.10;;;;;;;19.28;46.06;99977.27;1712502;83;21889;-81
2023/10/24 02:24:50;;;;;;;10.82;6.28;;;;;;;19.53;45.70;99973.72;1792302;79;21273;-81
2023/10/24 02:27:55;;;;;;;10.32;5.97;;;;;;;19.52;45.70;99977.55;1722441;83;21930;-84
2023/10/24 02:31:02;;;;;;;10.85;6.22;;;;;;;19.89;45.05;99982.83;1782080;80;21288;-84
2023/10/24 02:34:09;;;;;;;10.38;6.47;;;;;;;19.27;46.01;99978.36;1768108;81;21856;-82
2023/10/24 02:37:15;;;;;;;10.03;5.97;;;;;;;19.28;45.82;99978.11;1759006;81;21901;-85
2023/10/24 02:40:18;;;;;;;14.87;6.78;;;;;;;19.47;45.56;99978.83;1768801;81;21599;-81
2023/10/24 02:43:23;;;;;;;10.38;6.42;;;;;;;19.45;45.46;99986.56;1768674;81;21939;-82
2023/10/24 02:46:29;;;;;;;13.10;6.65;;;;;;;19.35;45.72;99997.42;1778518;80;21308;-80
2023/10/24 02:49:34;;;;;;;10.90;5.75;;;;;;;19.24;45.83;99999.63;1704871;84;21853;-82
2023/10/24 02:52:40;;;;;;;10.58;5.90;;;;;;;19.16;45.76;100011.94;1724654;83;21301;-80
2023/10/24 02:55:47;;;;;;;11.12;6.15;;;;;;;19.11;45.70;100004.34;1785051;80;21300;-80
2023/10/24 02:58:53;;;;;;;9.83;6.03;;;;;;;19.14;45.72;99998.30;1704412;84;21320;-84
2023/10/24 03:01:58;;;;;;;11.35;6.30;;;;;;;18.97;46.04;99990.41;1725905;83;21304;-81
2023/10/24 03:05:05;;;;;;;10.80;5.67;;;;;;;19.40;45.32;99984.52;1764437;81;21315;-81
2023/10/24 03:08:12;;;;;;;16.48;6.65;;;;;;;19.00;46.03;99983.53;1761748;81;21277;-84
2023/10/24 03:11:17;;;;;;;13.20;6.70;;;;;;;18.93;46.29;99986.42;1762810;81;21327;-83
2023/10/24 03:14:26;;;;;;;20.00;10.48;;;;;;;18.95;46.18;99975.92;1799980;79;21908;-82
2023/10/24 03:17:31;;;;;;;17.30;8.58;;;;;;;18.92;46.18;99975.05;1799424;79;21288;-83
2023/10/24 03:20:37;;;;;;;15.93;7.83;;;;;;;18.92;46.45;99977.81;1733330;83;21881;-80
2023/10/24 03:23:47;;;;;;;10.40;6.53;;;;;;;18.89;46.56;99978.28;1763510;81;21300;-84
2023/10/24 03:26:54;;;;;;;13.90;6.65;;;;;;;18.67;47.03;99977.95;1792147;79;21804;-81
2023/10/24 03:30:01;;;;;;;11.73;5.75;;;;;;;18.86;46.54;99971.82;1800267;79;21291;-81
2023/10/24 03:33:07;;;;;;;10.00;6.15;;;;;;;18.62;46.97;99970.36;1733068;83;21864;-81
2023/10/24 03:36:19;;;;;;;11.12;6.05;;;;;;;18.82;46.59;99972.86;1801086;79;21342;-81
2023/10/24 03:39:25;;;;;;;12.35;5.92;;;;;;;18.84;46.58;99978.16;1800241;79;21825;-84
2023/10/24 03:42:30;;;;;;;14.78;6.15;;;;;;;18.63;46.76;99973.45;1733327;83;21307;-81
2023/10/24 03:45:36;;;;;;;10.20;6.25;;;;;;;18.69;46.75;99973.08;1792393;79;21307;-81
2023/10/24 03:48:40;;;;;;;12.43;5.97;;;;;;;18.57;46.97;99967.45;1693368;84;21700;-83
2023/10/24 03:51:46;;;;;;;12.13;6.28;;;;;;;18.42;47.58;99971.22;1764138;81;21294;-84
2023/10/24 03:54:51;;;;;;;9.33;5.75;;;;;;;17.27;50.07;99973.92;1769778;80;21284;-81
2023/10/24 03:58:01;;;;;;;11.35;6.22;;;;;;;17.37;49.94;99972.31;1770062;80;21908;-84
2023/10/24 04:01:05;;;;;;;16.32;5.97;;;;;;;18.37;47.78;99974.69;1783862;79;21861;-81
2023/10/24 04:04:12;;;;;;;11.45;6.30;;;;;;;18.82;46.83;99974.76;1802160;79;21283;-81
2023/10/24 04:07:19;;;;;;;10.98;5.53;;;;;;;18.78;46.73;99981.89;1802147;79;21840;-81
2023/10/24 04:10:25;;;;;;;12.40;5.85;;;;;;;19.05;46.20;99974.78;1727732;82;21309;-81
2023/10/24 04:13:31;;;;;;;12.93;6.65;;;;;;;19.30;45.69;99973.73;1797295;80;21300;-83
2023/10/24 04:16:37;;;;;;;11.97;6.33;;;;;;;17.76;48.86;99988.17;1782831;79;21328;-84
2023/10/24 04:19:44;;;;;;;12.95;6.30;;;;;;;18.75;46.85;99994.82;1801313;79;21886;-81
2023/10/24 04:22:49;;;;;;;12.90;6.03;;;;;;;18.55;46.96;99991.78;1801126;79;21300;-81
2023/10/24 04:25:54;;;;;;;12.45;6.72;;;;;;;18.56;47.02;99999.02;1801136;79;21279;-84
2023/10/24 04:29:00;;;;;;;10.20;6.00;;;;;;;18.49;46.95;99998.28;1801072;79;21268;-81
2023/10/24 04:32:05;;;;;;;10.18;6.10;;;;;;;17.83;48.28;100010.20;1798503;79;21288;-81
2023/10/24 04:35:11;;;;;;;12.98;6.05;;;;;;;17.41;49.02;100011.92;1724781;83;21322;-84
2023/10/24 04:38:16;;;;;;;8.10;5.53;;;;;;;17.84;48.57;100014.69;1795606;80;21284;-81
2023/10/24 04:41:21;;;;;;;10.18;6.15;;;;;;;18.36;47.51;100023.39;1725024;83;21903;-81
2023/10/24 04:44:26;;;;;;;11.28;5.45;;;;;;;18.49;47.20;100028.74;1795443;80;21693;-84
2023/10/24 04:47:32;;;;;;;13.90;6.78;;;;;;;18.43;47.39;100026.89;1729092;81;21336;-82
2023/10/24 04:50:31;;;;;;;14.53;6.05;;;;;;;18.53;47.21;100031.86;1800377;79;21347;-81
2023/10/24 04:53:36;;;;;;;10.35;5.85;;;;;;;18.62;46.99;100038.77;1732284;82;21300;-83
2023/10/24 04:56:41;;;;;;;11.83;6.65;;;;;;;18.31;47.63;100043.47;1798599;79;21709;-82
2023/10/24 04:59:46;;;;;;;10.98;6.58;;;;;;;17.95;48.51;100045.73;1731881;83;21873;-82
2023/10/24 05:02:52;;;;;;;11.65;6.03;;;;;;;18.39;47.63;100051.97;1761780;81;21713;-84
2023/10/24 05:05:57;;;;;;;14.55;6.25;;;;;;;18.72;47.12;100060.38;1762225;81;21299;-82
2023/10/24 05:09:03;;;;;;;11.38;6.80;;;;;;;18.80;47.11;100062.83;1761929;81;21283;-84
2023/10/24 05:12:09;;;;;;;11.68;6.17;;;;;;;18.69;47.54;100059.49;1762189;81;21359;-84
2023/10/24 05:15:16;;;;;;;10.43;6.28;;;;;;;18.71;47.71;100065.62;1762154;81;21268;-84
2023/10/24 05:18:20;;;;;;;7.00;5.10;;;;;;;18.71;47.89;100067.02;1750457;81;21268;-84
2023/10/24 05:21:26;;;;;;;9.78;5.40;;;;;;;18.90;47.54;100064.48;1778555;79;21272;-84
2023/10/24 05:24:31;;;;;;;10.55;5.33;;;;;;;19.11;47.34;100076.42;1795669;80;21258;-85
2023/10/24 05:27:38;;;;;;;7.83;5.15;;;;;;;19.21;47.29;100081.92;1796700;79;22260;-82
2023/10/24 05:30:47;;;;;;;11.78;5.37;;;;;;;19.02;47.76;100082.00;1787479;79;21284;-82
2023/10/24 05:33:52;;;;;;;8.95;5.47;;;;;;;18.90;48.19;100086.65;1778302;79;21801;-84
2023/10/24 05:36:59;;;;;;;7.90;5.65;;;;;;;19.39;47.43;100091.53;1745383;80;21327;-82
2023/10/24 05:40:05;;;;;;;8.33;5.08;;;;;;;19.41;47.38;100094.90;1795218;80;21322;-81
2023/10/24 05:43:11;;;;;;;7.55;5.08;;;;;;;19.25;47.67;100097.84;1759455;79;21232;-82
2023/10/24 05:46:17;;;;;;;12.00;5.62;;;;;;;19.89;46.66;100101.63;1780073;79;21268;-84
2023/10/24 05:49:23;;;;;;;16.75;6.08;;;;;;;19.45;47.45;100104.44;1759807;79;21850;-84
2023/10/24 05:52:29;;;;;;;10.48;5.95;;;;;;;19.17;48.39;100100.95;1785555;79;21275;-84
2023/10/24 05:55:36;;;;;;;12.23;5.55;;;;;;;19.07;49.00;100105.69;1777331;79;22219;-84
2023/10/24 05:58:41;;;;;;;16.65;6.35;;;;;;;19.63;47.86;100102.97;1774851;79;21347;-81
2023/10/24 06:01:47;;;;;;;8.68;5.83;;;;;;;19.84;47.25;100100.12;1752149;81;21359;-83
2023/10/24 06:04:52;;;;;;;15.83;6.35;;;;;;;20.28;46.48;100111.67;1755503;81;21355;-81
2023/10/24 06:07:59;;;;;;;8.80;5.50;;;;;;;20.66;45.71;100111.10;1757800;80;21298;-82
2023/10/24 06:11:06;;;;;;;10.38;5.05;;;;;;;20.54;45.87;100110.28;1755837;80;21303;-80
2023/10/24 06:14:11;;;;;;;13.05;5.25;;;;;;;20.27;46.11;100108.57;1752534;81;21272;-83
2023/10/24 06:17:18;;;;;;;9.73;5.97;;;;;;;19.99;46.87;100112.66;1746890;81;21825;-84
2023/10/24 06:20:23;;;;;;;8.13;5.35;;;;;;;20.34;46.18;100105.13;1746783;81;21267;-83
2023/10/24 06:23:29;;;;;;;12.78;6.65;;;;;;;20.31;46.35;100118.66;1759692;81;21323;-84
2023/10/24 06:26:34;;;;;;;10.65;5.75;;;;;;;20.12;46.76;100111.86;1758014;81;21881;-81
2023/10/24 06:29:39;;;;;;;12.30;5.92;;;;;;;20.25;46.33;100115.48;1728596;81;21886;-85
2023/10/24 06:32:45;;;;;;;8.30;5.62;;;;;;;20.56;46.01;100119.23;1759821;81;21383;-85
2023/10/24 06:35:51;;;;;;;14.43;6.47;;;;;;;20.64;45.86;100121.60;1725589;81;21888;-84
2023/10/24 06:38:56;;;;;;;14.87;6.40;;;;;;;20.83;45.57;100130.59;1747531;80;21976;-81
2023/10/24 06:42:02;;;;;;;10.43;6.00;;;;;;;20.76;45.77;100128.52;1770136;81;21320;-81
2023/10/24 06:45:08;;;;;;;13.30;5.87;;;;;;;20.90;45.32;100127.69;1738558;81;21292;-84
2023/10/24 06:48:13;;;;;;;11.93;6.53;;;;;;;20.79;45.45;100131.34;1730450;81;21679;-84
2023/10/24 06:51:20;;;;;;;10.43;5.50;;;;;;;20.97;45.21;100136.70;1758655;80;21689;-82
2023/10/24 06:54:25;;;;;;;12.00;6.22;;;;;;;20.87;45.38;100132.34;1749167;81;21329;-84
2023/10/24 06:57:30;;;;;;;9.60;5.67;;;;;;;21.05;45.10;100134.91;1737106;81;21657;-84
2023/10/24 07:00:35;;;;;;;9.80;5.60;;;;;;;21.01;45.17;100139.28;1767459;79;21835;-84
2023/10/24 07:03:41;;;;;;;11.18;5.92;;;;;;;21.15;44.95;100145.38;1789289;79;21252;-84
2023/10/24 07:06:47;;;;;;;7.37;4.92;;;;;;;21.08;45.02;100147.48;1787614;79;21278;-82
2023/10/24 07:09:54;;;;;;;13.20;5.65;;;;;;;21.01;45.22;100142.06;1797744;79;21317;-82
2023/10/24 07:13:00;;;;;;;9.73;6.10;;;;;;;21.46;44.47;100150.98;1778229;79;21249;-82
2023/10/24 07:16:05;;;;;;;10.68;5.92;;;;;;;21.46;44.13;100157.95;1796339;79;21295;-84
2023/10/24 07:19:12;;;;;;;8.90;5.20;;;;;;;21.53;43.80;100162.78;1727628;82;21268;-81
2023/10/24 07:22:17;;;;;;;10.10;5.80;;;;;;;21.62;43.69;100161.82;1725996;81;21287;-81
2023/10/24 07:25:23;;;;;;;9.70;5.40;;;;;;;21.80;43.33;100160.17;1739464;81;21329;-82
2023/10/24 07:28:29;;;;;;;11.85;5.87;;;;;;;22.36;42.39;100155.48;1737966;81;21264;-84
2023/10/24 07:31:34;;;;;;;11.40;5.12;;;;;;;21.79;43.56;100166.02;1767484;79;21298;-81
2023/10/24 07:34:44;;;;;;;9.88;5.22;;;;;;;22.07;43.12;100172.86;1797391;79;21237;-84
2023/10/24 07:37:49;;;;;;;10.88;4.97;;;;;;;22.11;42.76;100167.11;1775929;79;21350;-84
2023/10/24 07:40:56;;;;;;;8.75;4.87;;;;;;;22.18;42.58;100167.75;1769474;80;21389;-82
2023/10/24 07:44:03;;;;;;;7.08;4.72;;;;;;;22.25;42.71;100163.38;1773681;79;21285;-82
2023/10/24 07:47:09;;;;;;;9.35;5.20;;;;;;;22.44;42.40;100156.95;1786574;79;21279;-80
2023/10/24 07:50:18;;;;;;;9.88;5.15;;;;;;;22.50;42.04;100162.07;1788830;79;21248;-83
2023/10/24 07:53:22;;;;;;;7.78;4.78;;;;;;;22.44;42.17;100156.95;1742456;82;21304;-83
2023/10/24 07:56:29;;;;;;;7.47;4.55;;;;;;;22.78;41.54;100157.69;1744393;80;21897;-82
2023/10/24 07:59:35;;;;;;;5.55;4.20;;;;;;;22.83;41.59;100155.52;1739908;82;21861;-81
2023/10/24 08:02:42;;;;;;;7.65;4.30;;;;;;;23.09;41.44;100149.69;1723349;82;21298;-83
2023/10/24 08:05:49;;;;;;;7.40;4.22;;;;;;;23.41;40.98;100154.75;1720160;82;21292;-84
2023/10/24 08:08:55;;;;;;;7.92;4.87;;;;;;;23.47;40.08;100154.24;1725222;82;21693;-84
2023/10/24 08:12:01;;;;;;;9.35;4.70;;;;;;;23.23;40.38;100157.92;1726353;83;21867;-82
2023/10/24 08:15:08;;;;;;;8.53;4.47;;;;;;;23.28;39.91;100145.97;1718113;82;21295;-82
2023/10/24 08:18:13;;;;;;;5.87;4.08;;;;;;;23.25;39.71;100147.91;1763188;81;21841;-84
2023/10/24 08:21:19;;;;;;;5.92;3.47;;;;;;;23.18;40.03;100146.16;1738860;81;21882;-83
2023/10/24 08:24:25;;;;;;;4.78;3.22;;;;;;;23.32;39.74;100139.59;1720481;81;21339;-82
2023/10/24 08:27:31;;;;;;;9.23;3.98;;;;;;;23.41;39.51;100147.78;1711314;81;21267;-83
2023/10/24 08:30:37;;;;;;;7.10;3.90;;;;;;;23.73;38.74;100133.57;1744526;81;21769;-85
2023/10/24 08:33:43;;;;;;;10.13;3.30;;;;;;;23.62;38.68;100129.80;1793675;79;21262;-83
2023/10/24 08:36:48;;;;;;;4.25;3.05;;;;;;;23.54;39.03;100131.71;1792546;79;21833;-83
2023/10/24 08:39:54;;;;;;;7.87;3.42;;;;;;;23.75;38.63;100124.36;1757746;80;21346;-82
2023/10/24 08:42:59;;;;;;;5.53;3.25;;;;;;;23.23;39.07;100133.37;1775009;79;21342;-82
2023/10/24 08:46:06;;;;;;;9.20;4.55;;;;;;;23.47;38.85;100126.33;1789471;79;21297;-81
2023/10/24 08:49:12;;;;;;;5.28;3.40;;;;;;;23.51;38.81;100119.11;1768633;79;21822;-84
2023/10/24 08:52:18;;;;;;;8.05;4.15;;;;;;;23.66;38.66;100125.41;1792644;79;21830;-83
2023/10/24 08:55:25;;;;;;;7.65;4.20;;;;;;;23.88;37.66;100131.72;1790907;79;21947;-83
2023/10/24 08:58:32;;;;;;;9.43;3.98;;;;;;;22.79;39.07;100119.50;1793123;78;21271;-84
2023/10/24 09:01:40;;;;;;;4.47;3.15;;;;;;;22.76;39.16;100115.82;1772416;79;21284;-83
2023/10/24 09:04:46;;;;;;;5.22;3.70;;;;;;;23.35;38.15;100108.94;1769118;79;21263;-82
2023/10/24 09:07:51;;;;;;;5.42;2.20;;;;;;;24.06;37.44;100105.87;1786609;79;21883;-83
2023/10/24 09:10:56;;;;;;;5.22;2.37;;;;;;;24.51;35.73;100103.87;1790678;80;21296;-81
2023/10/24 09:13:55;;;;;;;4.85;2.55;;;;;;;24.32;35.69;100111.02;1770218;80;21958;-84
2023/10/24 09:17:06;;;;;;;4.60;2.77;;;;;;;24.33;35.71;100109.93;1743552;80;21723;-82
2023/10/24 09:20:15;;;;;;;5.25;3.85;;;;;;;24.33;35.56;100101.55;1765276;80;21288;-82
2023/10/24 09:23:20;;;;;;;5.37;3.45;;;;;;;24.15;35.78;100107.88;1777955;80;21686;-83
2023/10/24 09:26:26;;;;;;;6.35;3.60;;;;;;;24.11;35.83;100105.89;1791575;79;21822;-82
2023/10/24 09:29:32;;;;;;;6.33;3.75;;;;;;;24.31;35.96;100107.95;1779239;80;21627;-84
2023/10/24 09:32:31;;;;;;;5.00;3.20;;;;;;;24.26;35.80;100105.97;1796542;79;21325;-85
2023/10/24 09:35:23;;;;;;;7.15;3.47;;;;;;;24.57;35.24;100105.59;1796764;79;21297;-83
2023/10/24 09:38:31;;;;;;;5.67;3.55;;;;;;;24.09;35.77;100096.39;1796310;80;21305;-82
2023/10/24 09:41:37;;;;;;;8.50;2.90;;;;;;;23.93;36.42;100105.78;1783172;79;21293;-84
2023/10/24 09:44:43;;;;;;;6.70;3.47;;;;;;;23.59;36.13;100108.86;1767414;78;21883;-83
2023/10/24 09:47:48;;;;;;;6.35;3.45;;;;;;;24.06;36.17;100092.73;1775294;79;21758;-84
2023/10/24 09:50:55;;;;;;;4.50;3.12;;;;;;;24.26;36.17;100111.55;1760724;79;21304;-83
2023/10/24 09:54:00;;;;;;;6.70;3.17;;;;;;;24.19;36.15;100113.77;1778625;79;21248;-84
2023/10/24 09:57:06;;;;;;;7.70;3.33;;;;;;;24.63;34.52;100109.24;1781589;79;21641;-83
2023/10/24 10:00:13;;;;;;;5.90;3.35;;;;;;;25.00;34.07;100102.08;1764058;79;22182;-84
2023/10/24 10:03:18;;;;;;;5.65;3.20;;;;;;;24.56;35.15;100096.06;1785277;79;22215;-82
2023/10/24 10:06:24;;;;;;;4.83;2.85;;;;;;;25.04;34.75;100092.02;1759761;79;21267;-83
2023/10/24 10:09:32;;;;;;;5.42;3.08;;;;;;;24.46;35.36;100099.66;1786401;79;21264;-81
2023/10/24 10:12:37;;;;;;;7.00;3.22;;;;;;;24.72;34.98;100100.05;1781652;79;21247;-82
2023/10/24 10:16:11;;;;;;;4.40;2.67;;;;;;;24.62;35.10;100094.42;1754748;79;21878;-82
2023/10/24 10:20:03;;;;;;;8.20;2.90;;;;;;;24.51;35.03;100094.08;1793193;79;21916;-84
2023/10/24 10:23:42;;;;;;;4.30;3.08;;;;;;;24.35;34.96;100100.70;1767738;79;21253;-83
2023/10/24 10:27:02;;;;;;;8.08;3.08;;;;;;;24.42;34.00;100104.14;1795284;79;21676;-84
2023/10/24 10:30:27;;;;;;;4.60;2.70;;;;;;;24.54;34.16;100093.55;1799451;79;21947;-83
2023/10/24 10:33:35;;;;;;;7.62;2.90;;;;;;;24.59;34.05;100095.52;1702398;83;21830;-83
2023/10/24 10:36:45;;;;;;;4.12;2.75;;;;;;;24.36;34.55;100096.27;1736569;82;21327;-82
2023/10/24 10:39:50;;;;;;;4.83;3.17;;;;;;;24.32;34.78;100091.45;1759781;80;21671;-83
2023/10/24 10:42:59;;;;;;;6.60;3.50;;;;;;;24.40;34.82;100090.41;1700392;82;21291;-84
2023/10/24 10:46:29;;;;;;;5.67;3.40;;;;;;;24.54;34.81;100095.51;1722981;81;21280;-83
2023/10/24 10:49:47;;;;;;;5.75;3.42;;;;;;;24.93;34.07;100094.49;1781411;79;21866;-83
2023/10/24 10:53:05;;;;;;;7.67;3.08;;;;;;;24.72;34.60;100084.66;1782198;79;21833;-83
2023/10/24 10:56:25;;;;;;;6.30;3.02;;;;;;;24.95;34.55;100081.09;1772366;79;21295;-84
2023/10/24 10:59:39;;;;;;;3.95;2.67;;;;;;;25.11;34.08;100084.77;1765769;80;21291;-83
2023/10/24 11:02:53;;;;;;;7.30;2.72;;;;;;;24.44;34.92;100073.39;1782906;79;21291;-83
2023/10/24 11:05:59;;;;;;;7.33;3.62;;;;;;;24.46;34.76;100076.73;1764346;79;21300;-82
2023/10/24 11:09:18;;;;;;;3.90;2.72;;;;;;;24.55;33.95;100080.41;1752295;80;21759;-84
2023/10/24 11:12:26;;;;;;;3.40;2.40;;;;;;;24.54;34.31;100062.80;1765239;79;21865;-84
2023/10/24 11:15:33;;;;;;;2.72;1.80;;;;;;;24.57;33.64;100058.63;1775196;79;21264;-84
2023/10/24 11:18:39;;;;;;;3.25;2.20;;;;;;;24.29;33.72;100057.92;1773889;79;21251;-84
2023/10/24 11:21:45;;;;;;;6.75;2.58;;;;;;;24.52;33.46;100056.66;1778895;79;21357;-84
2023/10/24 11:24:51;;;;;;;5.15;2.60;;;;;;;23.95;34.03;100053.30;1777727;79;21276;-84
2023/10/24 11:27:58;;;;;;;4.67;2.37;;;;;;;24.27;33.39;100054.55;1749629;79;21244;-84
2023/10/24 11:31:03;;;;;;;5.12;2.17;;;;;;;24.54;33.49;100053.01;1777473;79;21870;-83
2023/10/24 11:34:09;;;;;;;8.25;2.17;;;;;;;24.70;32.29;100056.15;1778268;79;21774;-82
2023/10/24 11:37:17;;;;;;;4.55;2.58;;;;;;;24.89;32.28;100058.39;1774816;79;21255;-83
2023/10/24 11:40:22;;;;;;;6.65;3.58;;;;;;;24.80;31.96;100058.69;1775033;79;21639;-83
2023/10/24 11:43:29;;;;;;;4.47;2.62;;;;;;;24.55;32.37;100053.28;1772465;79;21304;-83
2023/10/24 11:46:29;;;;;;;17.45;8.93;;;;;;;24.59;32.48;100050.78;1784625;79;21252;-83
2023/10/24 11:49:41;;;;;;;10.60;3.25;;;;;;;24.07;33.10;100052.50;1776893;79;21260;-81
2023/10/24 11:52:48;;;;;;;4.78;2.58;;;;;;;24.18;33.06;100053.39;1777659;79;21328;-82
2023/10/24 11:55:58;;;;;;;5.47;3.22;;;;;;;24.17;33.14;100055.34;1747752;81;21273;-83
2023/10/24 11:59:05;;;;;;;12.93;5.58;;;;;;;23.89;33.55;100055.75;1732640;81;21268;-83
2023/10/24 12:02:10;;;;;;;45.90;16.95;;;;;;;23.91;33.67;100057.18;1768282;79;21734;-81
2023/10/24 12:05:16;;;;;;;36.03;16.85;;;;;;;23.67;34.11;100058.15;1760659;79;21267;-81
2023/10/24 12:08:23;;;;;;;25.52;11.95;;;;;;;23.43;35.02;100058.19;1769646;79;21267;-83
2023/10/24 12:11:32;;;;;;;108.27;44.13;;;;;;;23.33;35.45;100055.33;1762230;79;22252;-82
2023/10/24 12:14:38;;;;;;;34.33;10.60;;;;;;;23.34;35.71;100063.45;1775063;79;21343;-82
2023/10/24 12:17:45;;;;;;;44.98;13.85;;;;;;;23.71;35.20;100068.20;1749610;81;21303;-83
2023/10/24 12:20:51;;;;;;;5.35;2.87;;;;;;;23.28;35.98;100060.87;1712242;82;21729;-84
2023/10/24 12:23:50;;;;;;;34.85;17.75;;;;;;;23.25;35.98;100058.63;1749455;81;21302;-82
2023/10/24 12:26:55;;;;;;;20.57;8.20;;;;;;;23.35;36.18;100054.52;1768336;79;21639;-83
2023/10/24 12:30:01;;;;;;;8.58;3.60;;;;;;;23.59;35.78;100054.42;1711559;81;21335;-83
2023/10/24 12:33:07;;;;;;;5.87;3.00;;;;;;;23.45;35.87;100061.02;1710553;82;21277;-84
2023/10/24 12:36:13;;;;;;;34.18;16.27;;;;;;;23.77;35.53;100055.98;1713904;82;21336;-84
2023/10/24 12:39:21;;;;;;;9.45;3.65;;;;;;;23.73;35.53;100059.58;1732248;82;21304;-83
2023/10/24 12:42:26;;;;;;;6.40;3.52;;;;;;;23.86;35.41;100059.11;1731842;82;21358;-81
2023/10/24 12:45:31;;;;;;;6.70;4.15;;;;;;;23.95;35.32;100047.71;1729902;82;21324;-83
2023/10/24 12:48:37;;;;;;;4.20;2.58;;;;;;;23.54;35.95;100054.39;1704516;84;21288;-83
2023/10/24 12:51:43;;;;;;;10.15;4.00;;;;;;;23.50;36.06;100054.63;1703162;83;21355;-82
2023/10/24 12:54:49;;;;;;;17.10;6.95;;;;;;;23.52;35.66;100049.61;1703984;84;21355;-83
2023/10/24 12:57:55;;;;;;;20.43;8.33;;;;;;;23.53;35.53;100049.08;1702817;83;21328;-82
2023/10/24 13:01:01;;;;;;;4.92;2.80;;;;;;;23.42;35.55;100051.77;1716035;82;21316;-82
2023/10/24 13:04:06;;;;;;;6.20;4.22;;;;;;;23.31;35.61;100061.19;1721884;82;21288;-83
2023/10/24 13:07:12;;;;;;;6.05;2.47;;;;;;;23.53;35.58;100058.30;1711935;82;21868;-84
2023/10/24 13:10:17;;;;;;;8.70;3.17;;;;;;;23.84;35.11;100050.14;1708434;83;21940;-83
2023/10/24 13:13:24;;;;;;;9.20;2.65;;;;;;;23.82;35.21;100046.79;1700373;84;21347;-83
2023/10/24 13:16:30;;;;;;;4.90;2.42;;;;;;;23.75;35.64;100044.78;1760654;80;21339;-83
2023/10/24 13:19:38;;;;;;;12.65;3.15;;;;;;;23.83;35.61;100035.90;1763658;81;21280;-82
2023/10/24 13:22:48;;;;;;;5.75;3.62;;;;;;;24.27;35.08;100050.91;1747892;81;21268;-82
2023/10/24 13:25:53;;;;;;;9.08;3.42;;;;;;;24.05;35.44;100026.80;1741969;81;21319;-82
2023/10/24 13:29:01;;;;;;;10.15;4.22;;;;;;;24.25;35.18;100022.41;1744922;81;21346;-81
2023/10/24 13:32:09;;;;;;;7.55;4.30;;;;;;;24.52;34.81;100025.90;1744497;80;21275;-83
2023/10/24 13:35:16;;;;;;;4.70;3.27;;;;;;;24.11;35.26;100017.33;1728980;81;21615;-83
2023/10/24 13:38:23;;;;;;;9.18;3.80;;;;;;;23.90;35.42;100019.72;1747438;81;21269;-84
2023/10/24 13:41:29;;;;;;;11.50;3.75;;;;;;;23.43;35.99;100024.70;1768256;80;21295;-83
2023/10/24 13:44:35;;;;;;;11.85;3.98;;;;;;;23.37;36.13;100029.97;1741700;81;21359;-83
2023/10/24 13:47:41;;;;;;;7.50;4.00;;;;;;;23.43;36.13;100027.49;1722214;82;21335;-83
2023/10/24 13:50:48;;;;;;;16.07;4.37;;;;;;;23.27;36.27;100027.10;1737684;81;21271;-83
2023/10/24 13:53:54;;;;;;;11.75;5.10;;;;;;;23.08;36.55;100031.69;1749850;81;21311;-82
2023/10/24 13:57:00;;;;;;;9.25;4.78;;;;;;;23.03;36.64;100038.62;1757341;81;21709;-82
2023/10/24 14:00:09;;;;;;;12.90;4.55;;;;;;;22.93;36.74;100038.53;1757558;81;21848;-83
2023/10/24 14:03:14;;;;;;;8.50;5.20;;;;;;;23.01;36.76;100046.42;1738220;82;21294;-82
2023/10/24 14:06:20;;;;;;;15.60;6.65;;;;;;;22.89;37.00;100045.73;1735435;82;21323;-83
2023/10/24 14:09:25;;;;;;;12.60;5.78;;;;;;;22.75;37.26;100045.28;1747968;81;21367;-83
2023/10/24 14:12:31;;;;;;;11.55;4.87;;;;;;;22.81;37.20;100055.94;1688402;85;21316;-83
2023/10/24 14:15:36;;;;;;;12.25;5.05;;;;;;;22.64;37.39;100063.86;1705347;83;21300;-84
2023/10/24 14:18:41;;;;;;;11.25;5.12;;;;;;;22.67;37.30;100061.92;1730482;83;21649;-83
2023/10/24 14:21:47;;;;;;;10.68;5.17;;;;;;;22.48;37.45;100066.72;1731378;82;21316;-83
2023/10/24 14:24:52;;;;;;;10.45;4.75;;;;;;;22.17;37.84;100060.23;1732020;83;21277;-83